sensor_id;sensor_type;location;lat;lon;timestamp;temperature;humidity
435;DHT22;204;48.942;9.256;2023-02-07T00:00:29;0.40;1.00
435;DHT22;204;48.942;9.256;2023-02-07T00:02:55;0.40;1.00
435;DHT22;204;48.942;9.256;2023-02-07T00:05:22;0.30;1.00
435;DHT22;204;48.942;9.256;2023-02-07T00:07:48;0.30;1.00
435;DHT22;204;48.942;9.256;2023-02-07T00:10:13;0.30;1.00
435;DHT22;204;48.942;9.256;2023-02-07T00:12:39;0.20;1.00
435;DHT22;204;48.942;9.256;2023-02-07T00:15:05;0.20;1.00
435;DHT22;204;48.942;9.256;2023-02-07T00:17:31;0.20;1.00
435;DHT22;204;48.942;9.256;2023-02-07T00:19:57;0.10;1.00
435;DHT22;204;48.942;9.256;2023-02-07T00:22:23;0.10;1.00
435;DHT22;204;48.942;9.256;2023-02-07T00:24:48;0.10;1.00
435;DHT22;204;48.942;9.256;2023-02-07T00:27:14;0.10;1.00
435;DHT22;204;48.942;9.256;2023-02-07T00:29:40;0.00;1.00
435;DHT22;204;48.942;9.256;2023-02-07T00:32:06;0.00;1.00
435;DHT22;204;48.942;9.256;2023-02-07T00:34:32;0.00;1.00
435;DHT22;204;48.942;9.256;2023-02-07T00:37:03;0.00;1.00
435;DHT22;204;48.942;9.256;2023-02-07T00:39:30;0.00;1.00
435;DHT22;204;48.942;9.256;2023-02-07T00:41:56;-0.10;1.00
435;DHT22;204;48.942;9.256;2023-02-07T00:44:22;-0.10;1.00
435;DHT22;204;48.942;9.256;2023-02-07T00:46:47;-0.10;1.00
435;DHT22;204;48.942;9.256;2023-02-07T00:49:13;-0.10;1.00
435;DHT22;204;48.942;9.256;2023-02-07T00:51:39;-0.20;1.00
435;DHT22;204;48.942;9.256;2023-02-07T00:54:05;-0.20;1.00
435;DHT22;204;48.942;9.256;2023-02-07T00:56:32;-0.20;1.00
435;DHT22;204;48.942;9.256;2023-02-07T00:58:58;-0.20;1.00
435;DHT22;204;48.942;9.256;2023-02-07T01:01:24;-0.30;1.00
435;DHT22;204;48.942;9.256;2023-02-07T01:03:52;-0.30;1.00
435;DHT22;204;48.942;9.256;2023-02-07T01:06:17;-0.40;1.00
435;DHT22;204;48.942;9.256;2023-02-07T01:08:43;-0.40;1.00
435;DHT22;204;48.942;9.256;2023-02-07T01:11:11;-0.50;1.00
435;DHT22;204;48.942;9.256;2023-02-07T01:13:39;-0.50;1.00
435;DHT22;204;48.942;9.256;2023-02-07T01:16:15;-0.50;1.00
435;DHT22;204;48.942;9.256;2023-02-07T01:18:41;-0.50;1.00
435;DHT22;204;48.942;9.256;2023-02-07T01:21:17;-0.50;1.00
435;DHT22;204;48.942;9.256;2023-02-07T01:23:43;-0.50;1.00
435;DHT22;204;48.942;9.256;2023-02-07T01:26:09;-0.60;1.00
435;DHT22;204;48.942;9.256;2023-02-07T01:28:34;-0.60;1.00
435;DHT22;204;48.942;9.256;2023-02-07T01:31:03;-0.60;1.00
435;DHT22;204;48.942;9.256;2023-02-07T01:33:30;-0.60;1.00
435;DHT22;204;48.942;9.256;2023-02-07T01:35:55;-0.60;1.00
435;DHT22;204;48.942;9.256;2023-02-07T01:38:21;-0.60;1.00
435;DHT22;204;48.942;9.256;2023-02-07T01:40:46;-0.60;1.00
435;DHT22;204;48.942;9.256;2023-02-07T01:43:17;-0.60;1.00
435;DHT22;204;48.942;9.256;2023-02-07T01:45:44;-0.60;1.00
435;DHT22;204;48.942;9.256;2023-02-07T01:48:18;-0.60;1.00
435;DHT22;204;48.942;9.256;2023-02-07T01:50:48;-0.60;1.00
435;DHT22;204;48.942;9.256;2023-02-07T01:53:16;-0.70;1.00
435;DHT22;204;48.942;9.256;2023-02-07T01:55:42;-0.70;1.00
435;DHT22;204;48.942;9.256;2023-02-07T01:58:10;-0.70;1.00
435;DHT22;204;48.942;9.256;2023-02-07T02:00:35;-0.70;1.00
435;DHT22;204;48.942;9.256;2023-02-07T02:03:02;-0.70;1.00
435;DHT22;204;48.942;9.256;2023-02-07T02:05:30;-0.80;1.00
435;DHT22;204;48.942;9.256;2023-02-07T02:07:56;-0.80;1.00
435;DHT22;204;48.942;9.256;2023-02-07T02:10:25;-0.80;1.00
435;DHT22;204;48.942;9.256;2023-02-07T02:13:22;-0.80;1.00
435;DHT22;204;48.942;9.256;2023-02-07T02:16:21;-0.90;1.00
435;DHT22;204;48.942;9.256;2023-02-07T02:32:10;-0.90;1.00
435;DHT22;204;48.942;9.256;2023-02-07T02:35:04;-1.00;1.00
435;DHT22;204;48.942;9.256;2023-02-07T02:37:38;-1.00;1.00
435;DHT22;204;48.942;9.256;2023-02-07T02:40:06;-1.00;1.00
435;DHT22;204;48.942;9.256;2023-02-07T02:42:38;-1.00;1.00
435;DHT22;204;48.942;9.256;2023-02-07T02:45:15;-1.10;1.00
435;DHT22;204;48.942;9.256;2023-02-07T02:47:45;-1.10;1.00
435;DHT22;204;48.942;9.256;2023-02-07T02:50:13;-1.10;1.00
435;DHT22;204;48.942;9.256;2023-02-07T02:52:39;-1.10;1.00
435;DHT22;204;48.942;9.256;2023-02-07T02:55:05;-1.20;1.00
435;DHT22;204;48.942;9.256;2023-02-07T03:06:03;-1.30;1.00
435;DHT22;204;48.942;9.256;2023-02-07T03:08:43;-1.30;1.00
435;DHT22;204;48.942;9.256;2023-02-07T03:11:10;-1.30;1.00
435;DHT22;204;48.942;9.256;2023-02-07T03:24:45;-1.40;1.00
435;DHT22;204;48.942;9.256;2023-02-07T03:27:14;-1.40;1.00
435;DHT22;204;48.942;9.256;2023-02-07T03:29:44;-1.40;1.00
435;DHT22;204;48.942;9.256;2023-02-07T03:32:11;-1.50;1.00
435;DHT22;204;48.942;9.256;2023-02-07T03:34:43;-1.50;1.00
435;DHT22;204;48.942;9.256;2023-02-07T03:39:59;-1.50;1.00
435;DHT22;204;48.942;9.256;2023-02-07T03:42:35;-1.50;1.00
435;DHT22;204;48.942;9.256;2023-02-07T03:45:02;-1.60;1.00
435;DHT22;204;48.942;9.256;2023-02-07T03:47:29;-1.60;1.00
435;DHT22;204;48.942;9.256;2023-02-07T03:49:55;-1.70;1.00
435;DHT22;204;48.942;9.256;2023-02-07T03:52:21;-1.70;1.00
435;DHT22;204;48.942;9.256;2023-02-07T03:54:46;-1.70;1.00
435;DHT22;204;48.942;9.256;2023-02-07T03:57:12;-1.80;1.00
435;DHT22;204;48.942;9.256;2023-02-07T03:59:37;-1.80;1.00
435;DHT22;204;48.942;9.256;2023-02-07T04:02:03;-1.80;1.00
435;DHT22;204;48.942;9.256;2023-02-07T04:04:29;-1.80;1.00
435;DHT22;204;48.942;9.256;2023-02-07T04:06:55;-1.80;1.00
435;DHT22;204;48.942;9.256;2023-02-07T04:09:21;-1.80;1.00
435;DHT22;204;48.942;9.256;2023-02-07T04:11:50;-1.80;1.00
435;DHT22;204;48.942;9.256;2023-02-07T04:14:16;-1.90;1.00
435;DHT22;204;48.942;9.256;2023-02-07T04:16:44;-1.90;1.00
435;DHT22;204;48.942;9.256;2023-02-07T04:19:10;-1.90;1.00
435;DHT22;204;48.942;9.256;2023-02-07T04:21:36;-1.90;1.00
435;DHT22;204;48.942;9.256;2023-02-07T04:24:01;-2.00;1.00
435;DHT22;204;48.942;9.256;2023-02-07T04:26:27;-2.00;1.00
435;DHT22;204;48.942;9.256;2023-02-07T04:28:52;-2.00;1.00
435;DHT22;204;48.942;9.256;2023-02-07T04:31:18;-2.00;1.00
435;DHT22;204;48.942;9.256;2023-02-07T04:33:44;-2.00;1.00
435;DHT22;204;48.942;9.256;2023-02-07T04:36:09;-2.00;1.00
435;DHT22;204;48.942;9.256;2023-02-07T04:38:35;-2.00;1.00
435;DHT22;204;48.942;9.256;2023-02-07T04:41:02;-2.00;1.00
435;DHT22;204;48.942;9.256;2023-02-07T04:43:29;-2.00;1.00
435;DHT22;204;48.942;9.256;2023-02-07T04:45:55;-2.00;1.00
435;DHT22;204;48.942;9.256;2023-02-07T04:48:21;-2.10;1.00
435;DHT22;204;48.942;9.256;2023-02-07T04:50:47;-2.10;1.00
435;DHT22;204;48.942;9.256;2023-02-07T04:53:13;-2.10;1.00
435;DHT22;204;48.942;9.256;2023-02-07T04:55:38;-2.10;1.00
435;DHT22;204;48.942;9.256;2023-02-07T04:58:04;-2.10;1.00
435;DHT22;204;48.942;9.256;2023-02-07T05:00:30;-2.20;1.00
435;DHT22;204;48.942;9.256;2023-02-07T05:02:56;-2.20;1.00
435;DHT22;204;48.942;9.256;2023-02-07T05:05:22;-2.20;1.00
435;DHT22;204;48.942;9.256;2023-02-07T05:07:47;-2.20;1.00
435;DHT22;204;48.942;9.256;2023-02-07T05:10:13;-2.30;1.00
435;DHT22;204;48.942;9.256;2023-02-07T05:12:38;-2.30;1.00
435;DHT22;204;48.942;9.256;2023-02-07T05:15:04;-2.30;1.00
435;DHT22;204;48.942;9.256;2023-02-07T05:17:30;-2.30;1.00
435;DHT22;204;48.942;9.256;2023-02-07T05:19:59;-2.30;1.00
435;DHT22;204;48.942;9.256;2023-02-07T05:22:25;-2.30;1.00
435;DHT22;204;48.942;9.256;2023-02-07T05:24:51;-2.40;1.00
435;DHT22;204;48.942;9.256;2023-02-07T05:27:16;-2.40;1.00
435;DHT22;204;48.942;9.256;2023-02-07T05:29:42;-2.40;1.00
435;DHT22;204;48.942;9.256;2023-02-07T05:32:11;-2.40;1.00
435;DHT22;204;48.942;9.256;2023-02-07T05:34:55;-2.40;1.00
435;DHT22;204;48.942;9.256;2023-02-07T05:37:22;-2.50;1.00
435;DHT22;204;48.942;9.256;2023-02-07T05:39:47;-2.50;1.00
435;DHT22;204;48.942;9.256;2023-02-07T05:42:13;-2.50;1.00
435;DHT22;204;48.942;9.256;2023-02-07T05:44:39;-2.50;1.00
435;DHT22;204;48.942;9.256;2023-02-07T05:47:04;-2.60;1.00
435;DHT22;204;48.942;9.256;2023-02-07T05:49:30;-2.60;1.00
435;DHT22;204;48.942;9.256;2023-02-07T05:51:55;-2.60;1.00
435;DHT22;204;48.942;9.256;2023-02-07T05:54:21;-2.60;1.00
435;DHT22;204;48.942;9.256;2023-02-07T05:56:47;-2.70;1.00
435;DHT22;204;48.942;9.256;2023-02-07T05:59:12;-2.80;1.00
435;DHT22;204;48.942;9.256;2023-02-07T06:01:38;-2.80;1.00
435;DHT22;204;48.942;9.256;2023-02-07T06:04:04;-2.80;1.00
435;DHT22;204;48.942;9.256;2023-02-07T06:06:29;-2.80;1.00
435;DHT22;204;48.942;9.256;2023-02-07T06:08:55;-2.80;1.00
435;DHT22;204;48.942;9.256;2023-02-07T06:11:20;-2.90;1.00
435;DHT22;204;48.942;9.256;2023-02-07T06:13:46;-2.90;1.00
435;DHT22;204;48.942;9.256;2023-02-07T06:16:11;-2.90;1.00
435;DHT22;204;48.942;9.256;2023-02-07T06:18:37;-3.00;1.00
435;DHT22;204;48.942;9.256;2023-02-07T06:21:04;-3.00;1.00
435;DHT22;204;48.942;9.256;2023-02-07T06:23:30;-3.00;1.00
435;DHT22;204;48.942;9.256;2023-02-07T06:25:55;-3.00;1.00
435;DHT22;204;48.942;9.256;2023-02-07T06:28:21;-3.00;1.00
435;DHT22;204;48.942;9.256;2023-02-07T06:30:49;-3.00;1.00
435;DHT22;204;48.942;9.256;2023-02-07T06:33:14;-3.00;1.00
435;DHT22;204;48.942;9.256;2023-02-07T06:35:40;-3.00;1.00
435;DHT22;204;48.942;9.256;2023-02-07T06:38:14;-3.00;1.00
435;DHT22;204;48.942;9.256;2023-02-07T06:40:41;-3.00;1.00
435;DHT22;204;48.942;9.256;2023-02-07T06:43:07;-3.00;1.00
435;DHT22;204;48.942;9.256;2023-02-07T06:45:33;-3.10;1.00
435;DHT22;204;48.942;9.256;2023-02-07T06:47:58;-3.00;1.00
435;DHT22;204;48.942;9.256;2023-02-07T06:50:24;-3.00;1.00
435;DHT22;204;48.942;9.256;2023-02-07T06:52:49;-3.00;1.00
435;DHT22;204;48.942;9.256;2023-02-07T06:55:15;-3.00;1.00
435;DHT22;204;48.942;9.256;2023-02-07T06:57:41;-3.10;1.00
435;DHT22;204;48.942;9.256;2023-02-07T07:00:07;-3.10;1.00
435;DHT22;204;48.942;9.256;2023-02-07T07:02:32;-3.00;1.00
435;DHT22;204;48.942;9.256;2023-02-07T07:04:58;-3.10;1.00
435;DHT22;204;48.942;9.256;2023-02-07T07:07:24;-3.00;1.00
435;DHT22;204;48.942;9.256;2023-02-07T07:09:49;-3.10;1.00
435;DHT22;204;48.942;9.256;2023-02-07T07:12:15;-3.00;1.00
435;DHT22;204;48.942;9.256;2023-02-07T07:14:40;-3.00;1.00
435;DHT22;204;48.942;9.256;2023-02-07T07:17:06;-3.00;1.00
435;DHT22;204;48.942;9.256;2023-02-07T07:19:31;-3.00;1.00
435;DHT22;204;48.942;9.256;2023-02-07T07:21:57;-2.90;1.00
435;DHT22;204;48.942;9.256;2023-02-07T07:24:23;-2.90;1.00
435;DHT22;204;48.942;9.256;2023-02-07T07:26:49;-2.90;1.00
435;DHT22;204;48.942;9.256;2023-02-07T07:29:16;-2.80;1.00
435;DHT22;204;48.942;9.256;2023-02-07T07:31:42;-2.80;1.00
435;DHT22;204;48.942;9.256;2023-02-07T07:34:08;-2.70;1.00
435;DHT22;204;48.942;9.256;2023-02-07T07:36:33;-2.70;1.00
435;DHT22;204;48.942;9.256;2023-02-07T07:38:59;-2.70;1.00
435;DHT22;204;48.942;9.256;2023-02-07T07:41:24;-2.60;1.00
435;DHT22;204;48.942;9.256;2023-02-07T07:43:50;-2.50;1.00
435;DHT22;204;48.942;9.256;2023-02-07T07:46:16;-2.50;1.00
435;DHT22;204;48.942;9.256;2023-02-07T07:48:41;-2.40;1.00
435;DHT22;204;48.942;9.256;2023-02-07T07:51:07;-2.30;1.00
435;DHT22;204;48.942;9.256;2023-02-07T07:53:32;-2.20;1.00
435;DHT22;204;48.942;9.256;2023-02-07T07:55:58;-2.10;1.00
435;DHT22;204;48.942;9.256;2023-02-07T07:58:24;-2.10;1.00
435;DHT22;204;48.942;9.256;2023-02-07T08:00:50;-2.00;1.00
435;DHT22;204;48.942;9.256;2023-02-07T08:03:17;-1.90;1.00
435;DHT22;204;48.942;9.256;2023-02-07T08:05:44;-1.80;1.00
435;DHT22;204;48.942;9.256;2023-02-07T08:08:10;-1.80;1.00
435;DHT22;204;48.942;9.256;2023-02-07T08:10:36;-1.70;1.00
435;DHT22;204;48.942;9.256;2023-02-07T08:13:02;-1.70;1.00
435;DHT22;204;48.942;9.256;2023-02-07T08:15:28;-1.60;1.00
435;DHT22;204;48.942;9.256;2023-02-07T08:17:54;-1.60;1.00
435;DHT22;204;48.942;9.256;2023-02-07T08:20:19;-1.50;1.00
435;DHT22;204;48.942;9.256;2023-02-07T08:22:45;-1.40;1.00
435;DHT22;204;48.942;9.256;2023-02-07T08:25:10;-1.40;1.00
435;DHT22;204;48.942;9.256;2023-02-07T08:27:36;-1.30;1.00
435;DHT22;204;48.942;9.256;2023-02-07T08:30:03;-1.30;1.00
435;DHT22;204;48.942;9.256;2023-02-07T08:32:29;-1.20;1.00
435;DHT22;204;48.942;9.256;2023-02-07T08:34:55;-1.10;1.00
435;DHT22;204;48.942;9.256;2023-02-07T08:37:20;-1.00;1.00
435;DHT22;204;48.942;9.256;2023-02-07T08:39:47;-0.90;1.00
435;DHT22;204;48.942;9.256;2023-02-07T08:42:17;-0.80;1.00
435;DHT22;204;48.942;9.256;2023-02-07T08:44:44;-0.70;1.00
435;DHT22;204;48.942;9.256;2023-02-07T08:47:09;-0.70;1.00
435;DHT22;204;48.942;9.256;2023-02-07T08:49:35;-0.60;1.00
435;DHT22;204;48.942;9.256;2023-02-07T08:52:01;-0.50;1.00
435;DHT22;204;48.942;9.256;2023-02-07T08:54:26;-0.50;1.00
435;DHT22;204;48.942;9.256;2023-02-07T08:56:52;-0.50;1.00
435;DHT22;204;48.942;9.256;2023-02-07T08:59:18;-0.40;1.00
435;DHT22;204;48.942;9.256;2023-02-07T09:01:43;-0.40;1.00
435;DHT22;204;48.942;9.256;2023-02-07T09:04:09;-0.40;1.00
435;DHT22;204;48.942;9.256;2023-02-07T09:06:35;-0.40;1.00
435;DHT22;204;48.942;9.256;2023-02-07T09:09:01;-0.40;1.00
435;DHT22;204;48.942;9.256;2023-02-07T09:11:27;-0.40;1.00
435;DHT22;204;48.942;9.256;2023-02-07T09:13:52;-0.40;1.00
435;DHT22;204;48.942;9.256;2023-02-07T09:16:18;-0.30;1.00
435;DHT22;204;48.942;9.256;2023-02-07T09:18:44;-0.30;1.00
435;DHT22;204;48.942;9.256;2023-02-07T09:21:10;-0.30;1.00
435;DHT22;204;48.942;9.256;2023-02-07T09:23:35;-0.20;1.00
435;DHT22;204;48.942;9.256;2023-02-07T09:26:04;-0.10;1.00
435;DHT22;204;48.942;9.256;2023-02-07T09:28:30;-0.10;1.00
435;DHT22;204;48.942;9.256;2023-02-07T09:30:56;0.10;1.00
435;DHT22;204;48.942;9.256;2023-02-07T09:33:22;0.10;1.00
435;DHT22;204;48.942;9.256;2023-02-07T09:35:48;0.20;1.00
435;DHT22;204;48.942;9.256;2023-02-07T09:38:20;0.30;1.00
435;DHT22;204;48.942;9.256;2023-02-07T09:40:48;0.30;1.00
435;DHT22;204;48.942;9.256;2023-02-07T09:43:35;0.40;1.00
435;DHT22;204;48.942;9.256;2023-02-07T09:46:18;0.50;1.00
435;DHT22;204;48.942;9.256;2023-02-07T09:48:49;0.60;1.00
435;DHT22;204;48.942;9.256;2023-02-07T09:51:18;0.60;1.00
435;DHT22;204;48.942;9.256;2023-02-07T09:54:02;0.70;1.00
435;DHT22;204;48.942;9.256;2023-02-07T09:56:29;0.70;1.00
435;DHT22;204;48.942;9.256;2023-02-07T09:59:22;0.70;1.00
435;DHT22;204;48.942;9.256;2023-02-07T10:01:52;0.80;1.00
435;DHT22;204;48.942;9.256;2023-02-07T10:06:49;0.90;1.00
435;DHT22;204;48.942;9.256;2023-02-07T10:09:20;1.00;1.00
435;DHT22;204;48.942;9.256;2023-02-07T10:12:02;1.10;1.00
435;DHT22;204;48.942;9.256;2023-02-07T10:27:29;1.60;1.00
435;DHT22;204;48.942;9.256;2023-02-07T10:30:19;1.70;1.00
435;DHT22;204;48.942;9.256;2023-02-07T10:32:47;1.70;1.00
435;DHT22;204;48.942;9.256;2023-02-07T10:35:33;1.80;1.00
435;DHT22;204;48.942;9.256;2023-02-07T10:38:00;1.80;1.00
435;DHT22;204;48.942;9.256;2023-02-07T10:40:38;1.90;1.00
435;DHT22;204;48.942;9.256;2023-02-07T10:43:30;2.00;1.00
435;DHT22;204;48.942;9.256;2023-02-07T10:46:08;2.00;1.00
435;DHT22;204;48.942;9.256;2023-02-07T10:48:36;2.10;1.00
435;DHT22;204;48.942;9.256;2023-02-07T10:51:04;2.10;1.00
435;DHT22;204;48.942;9.256;2023-02-07T10:53:47;2.10;1.00
435;DHT22;204;48.942;9.256;2023-02-07T10:56:18;2.10;1.00
435;DHT22;204;48.942;9.256;2023-02-07T10:58:44;2.10;1.00
435;DHT22;204;48.942;9.256;2023-02-07T11:01:24;2.20;1.00
435;DHT22;204;48.942;9.256;2023-02-07T11:03:50;2.30;1.00
435;DHT22;204;48.942;9.256;2023-02-07T11:06:34;2.40;1.00
435;DHT22;204;48.942;9.256;2023-02-07T11:09:20;2.50;1.00
435;DHT22;204;48.942;9.256;2023-02-07T11:11:50;2.50;1.00
435;DHT22;204;48.942;9.256;2023-02-07T11:14:19;2.50;1.00
435;DHT22;204;48.942;9.256;2023-02-07T11:16:56;2.50;1.00
435;DHT22;204;48.942;9.256;2023-02-07T11:19:25;2.50;1.00
435;DHT22;204;48.942;9.256;2023-02-07T11:22:06;2.60;1.00
435;DHT22;204;48.942;9.256;2023-02-07T11:24:35;2.70;1.00
435;DHT22;204;48.942;9.256;2023-02-07T11:27:07;2.70;1.00
435;DHT22;204;48.942;9.256;2023-02-07T11:29:45;2.80;1.00
435;DHT22;204;48.942;9.256;2023-02-07T11:32:13;2.80;1.00
435;DHT22;204;48.942;9.256;2023-02-07T11:34:55;2.90;1.00
435;DHT22;204;48.942;9.256;2023-02-07T11:37:26;2.90;1.00
435;DHT22;204;48.942;9.256;2023-02-07T11:40:26;2.90;1.00
435;DHT22;204;48.942;9.256;2023-02-07T11:45:23;2.90;1.00
435;DHT22;204;48.942;9.256;2023-02-07T11:47:54;3.00;1.00
435;DHT22;204;48.942;9.256;2023-02-07T11:50:25;3.10;1.00
435;DHT22;204;48.942;9.256;2023-02-07T11:52:56;3.10;1.00
435;DHT22;204;48.942;9.256;2023-02-07T11:55:43;3.20;1.00
435;DHT22;204;48.942;9.256;2023-02-07T12:00:50;3.20;1.00
435;DHT22;204;48.942;9.256;2023-02-07T12:03:25;3.30;1.00
435;DHT22;204;48.942;9.256;2023-02-07T12:05:54;3.30;1.00
435;DHT22;204;48.942;9.256;2023-02-07T12:08:23;3.30;1.00
435;DHT22;204;48.942;9.256;2023-02-07T12:11:09;3.40;1.00
435;DHT22;204;48.942;9.256;2023-02-07T12:13:40;3.40;1.00
435;DHT22;204;48.942;9.256;2023-02-07T12:16:09;3.50;1.00
435;DHT22;204;48.942;9.256;2023-02-07T12:18:40;3.50;1.00
435;DHT22;204;48.942;9.256;2023-02-07T12:26:23;3.50;1.00
435;DHT22;204;48.942;9.256;2023-02-07T12:31:53;3.60;1.00
435;DHT22;204;48.942;9.256;2023-02-07T12:34:31;3.70;1.00
435;DHT22;204;48.942;9.256;2023-02-07T12:37:10;3.70;1.00
435;DHT22;204;48.942;9.256;2023-02-07T12:39:47;3.70;1.00
435;DHT22;204;48.942;9.256;2023-02-07T12:44:56;3.80;1.00
435;DHT22;204;48.942;9.256;2023-02-07T12:47:37;3.80;1.00
435;DHT22;204;48.942;9.256;2023-02-07T12:53:17;3.90;1.00
435;DHT22;204;48.942;9.256;2023-02-07T12:56:07;4.00;1.00
435;DHT22;204;48.942;9.256;2023-02-07T12:58:47;4.00;1.00
435;DHT22;204;48.942;9.256;2023-02-07T13:01:27;4.00;1.00
435;DHT22;204;48.942;9.256;2023-02-07T13:07:22;4.00;1.00
435;DHT22;204;48.942;9.256;2023-02-07T13:10:12;4.10;1.00
435;DHT22;204;48.942;9.256;2023-02-07T13:13:21;4.20;1.00
435;DHT22;204;48.942;9.256;2023-02-07T13:21:31;4.20;1.00
435;DHT22;204;48.942;9.256;2023-02-07T13:24:01;4.30;1.00
435;DHT22;204;48.942;9.256;2023-02-07T13:26:29;4.30;1.00
435;DHT22;204;48.942;9.256;2023-02-07T13:29:03;4.30;1.00
435;DHT22;204;48.942;9.256;2023-02-07T13:34:18;4.40;1.00
435;DHT22;204;48.942;9.256;2023-02-07T13:36:47;4.40;1.00
435;DHT22;204;48.942;9.256;2023-02-07T13:45:20;4.50;1.00
435;DHT22;204;48.942;9.256;2023-02-07T13:55:40;4.50;1.00
435;DHT22;204;48.942;9.256;2023-02-07T14:01:21;4.60;1.00
435;DHT22;204;48.942;9.256;2023-02-07T14:04:07;4.60;1.00
435;DHT22;204;48.942;9.256;2023-02-07T14:07:13;4.50;1.00
435;DHT22;204;48.942;9.256;2023-02-07T14:09:44;4.50;1.00
435;DHT22;204;48.942;9.256;2023-02-07T14:12:26;4.50;1.00
435;DHT22;204;48.942;9.256;2023-02-07T14:14:54;4.50;1.00
435;DHT22;204;48.942;9.256;2023-02-07T14:19:52;4.50;1.00
435;DHT22;204;48.942;9.256;2023-02-07T14:22:19;4.50;1.00
435;DHT22;204;48.942;9.256;2023-02-07T14:30:18;4.60;1.00
435;DHT22;204;48.942;9.256;2023-02-07T14:37:54;4.50;1.00
435;DHT22;204;48.942;9.256;2023-02-07T14:40:27;4.50;1.00
435;DHT22;204;48.942;9.256;2023-02-07T14:45:30;4.50;1.00
435;DHT22;204;48.942;9.256;2023-02-07T14:47:57;4.50;1.00
435;DHT22;204;48.942;9.256;2023-02-07T14:50:28;4.40;1.00
435;DHT22;204;48.942;9.256;2023-02-07T14:52:59;4.40;1.00
435;DHT22;204;48.942;9.256;2023-02-07T14:55:46;4.40;1.00
435;DHT22;204;48.942;9.256;2023-02-07T14:58:38;4.40;1.00
435;DHT22;204;48.942;9.256;2023-02-07T15:01:11;4.40;1.00
435;DHT22;204;48.942;9.256;2023-02-07T15:03:37;4.40;1.00
435;DHT22;204;48.942;9.256;2023-02-07T15:06:16;4.30;1.00
435;DHT22;204;48.942;9.256;2023-02-07T15:08:54;4.30;1.00
435;DHT22;204;48.942;9.256;2023-02-07T15:11:20;4.30;1.00
435;DHT22;204;48.942;9.256;2023-02-07T15:13:47;4.30;1.00
435;DHT22;204;48.942;9.256;2023-02-07T15:16:25;4.30;1.00
435;DHT22;204;48.942;9.256;2023-02-07T15:18:53;4.30;1.00
435;DHT22;204;48.942;9.256;2023-02-07T15:21:36;4.30;1.00
435;DHT22;204;48.942;9.256;2023-02-07T15:26:40;4.20;1.00
435;DHT22;204;48.942;9.256;2023-02-07T15:29:27;4.20;1.00
435;DHT22;204;48.942;9.256;2023-02-07T15:31:53;4.20;1.00
435;DHT22;204;48.942;9.256;2023-02-07T15:34:22;4.10;1.00
435;DHT22;204;48.942;9.256;2023-02-07T15:36:50;4.10;1.00
435;DHT22;204;48.942;9.256;2023-02-07T15:39:21;4.10;1.00
435;DHT22;204;48.942;9.256;2023-02-07T15:41:49;4.00;1.00
435;DHT22;204;48.942;9.256;2023-02-07T15:49:41;3.90;1.00
435;DHT22;204;48.942;9.256;2023-02-07T15:54:43;3.80;1.00
435;DHT22;204;48.942;9.256;2023-02-07T15:57:23;3.80;1.00
435;DHT22;204;48.942;9.256;2023-02-07T15:59:50;3.70;1.00
435;DHT22;204;48.942;9.256;2023-02-07T16:02:35;3.70;1.00
435;DHT22;204;48.942;9.256;2023-02-07T16:05:18;3.70;1.00
435;DHT22;204;48.942;9.256;2023-02-07T16:07:45;3.50;1.00
435;DHT22;204;48.942;9.256;2023-02-07T16:12:58;3.40;1.00
435;DHT22;204;48.942;9.256;2023-02-07T16:16:08;3.40;1.00
435;DHT22;204;48.942;9.256;2023-02-07T16:18:37;3.30;1.00
435;DHT22;204;48.942;9.256;2023-02-07T16:21:09;3.20;1.00
435;DHT22;204;48.942;9.256;2023-02-07T16:23:35;3.10;1.00
435;DHT22;204;48.942;9.256;2023-02-07T16:26:01;3.00;1.00
435;DHT22;204;48.942;9.256;2023-02-07T16:28:29;3.00;1.00
435;DHT22;204;48.942;9.256;2023-02-07T16:30:55;2.90;1.00
435;DHT22;204;48.942;9.256;2023-02-07T16:33:21;2.90;1.00
435;DHT22;204;48.942;9.256;2023-02-07T16:35:46;2.80;1.00
435;DHT22;204;48.942;9.256;2023-02-07T16:38:12;2.70;1.00
435;DHT22;204;48.942;9.256;2023-02-07T16:40:38;2.60;1.00
435;DHT22;204;48.942;9.256;2023-02-07T16:43:05;2.50;1.00
435;DHT22;204;48.942;9.256;2023-02-07T16:45:31;2.40;1.00
435;DHT22;204;48.942;9.256;2023-02-07T16:47:58;2.30;1.00
435;DHT22;204;48.942;9.256;2023-02-07T16:50:29;2.20;1.00
435;DHT22;204;48.942;9.256;2023-02-07T16:52:56;2.10;1.00
435;DHT22;204;48.942;9.256;2023-02-07T16:55:23;2.10;1.00
435;DHT22;204;48.942;9.256;2023-02-07T16:57:50;2.00;1.00
435;DHT22;204;48.942;9.256;2023-02-07T17:00:22;2.00;1.00
435;DHT22;204;48.942;9.256;2023-02-07T17:02:49;1.90;1.00
435;DHT22;204;48.942;9.256;2023-02-07T17:05:19;1.80;1.00
435;DHT22;204;48.942;9.256;2023-02-07T17:07:46;1.80;1.00
435;DHT22;204;48.942;9.256;2023-02-07T17:10:20;1.70;1.00
435;DHT22;204;48.942;9.256;2023-02-07T17:12:46;1.70;1.00
435;DHT22;204;48.942;9.256;2023-02-07T17:15:12;1.70;1.00
435;DHT22;204;48.942;9.256;2023-02-07T17:17:38;1.60;1.00
435;DHT22;204;48.942;9.256;2023-02-07T17:20:29;1.60;1.00
435;DHT22;204;48.942;9.256;2023-02-07T17:22:55;1.50;1.00
435;DHT22;204;48.942;9.256;2023-02-07T17:25:23;1.50;1.00
435;DHT22;204;48.942;9.256;2023-02-07T17:27:48;1.50;1.00
435;DHT22;204;48.942;9.256;2023-02-07T17:32:48;1.30;1.00
435;DHT22;204;48.942;9.256;2023-02-07T17:35:14;1.30;1.00
435;DHT22;204;48.942;9.256;2023-02-07T17:37:40;1.20;1.00
435;DHT22;204;48.942;9.256;2023-02-07T17:42:49;1.00;1.00
435;DHT22;204;48.942;9.256;2023-02-07T17:45:15;1.00;1.00
435;DHT22;204;48.942;9.256;2023-02-07T17:47:41;0.90;1.00
435;DHT22;204;48.942;9.256;2023-02-07T17:50:31;0.90;1.00
435;DHT22;204;48.942;9.256;2023-02-07T17:52:56;0.90;1.00
435;DHT22;204;48.942;9.256;2023-02-07T17:55:22;0.80;1.00
435;DHT22;204;48.942;9.256;2023-02-07T17:57:48;0.70;1.00
435;DHT22;204;48.942;9.256;2023-02-07T18:00:23;0.70;1.00
435;DHT22;204;48.942;9.256;2023-02-07T18:02:49;0.60;1.00
435;DHT22;204;48.942;9.256;2023-02-07T18:05:16;0.60;1.00
435;DHT22;204;48.942;9.256;2023-02-07T18:07:43;0.50;1.00
435;DHT22;204;48.942;9.256;2023-02-07T18:10:10;0.50;1.00
435;DHT22;204;48.942;9.256;2023-02-07T18:12:36;0.40;1.00
435;DHT22;204;48.942;9.256;2023-02-07T18:15:03;0.40;1.00
435;DHT22;204;48.942;9.256;2023-02-07T18:17:29;0.40;1.00
435;DHT22;204;48.942;9.256;2023-02-07T18:19:55;0.40;1.00
435;DHT22;204;48.942;9.256;2023-02-07T18:22:20;0.40;1.00
435;DHT22;204;48.942;9.256;2023-02-07T18:24:46;0.40;1.00
435;DHT22;204;48.942;9.256;2023-02-07T18:27:12;0.40;1.00
435;DHT22;204;48.942;9.256;2023-02-07T18:29:41;0.30;1.00
435;DHT22;204;48.942;9.256;2023-02-07T18:32:07;0.30;1.00
435;DHT22;204;48.942;9.256;2023-02-07T18:34:33;0.30;1.00
435;DHT22;204;48.942;9.256;2023-02-07T18:36:59;0.30;1.00
435;DHT22;204;48.942;9.256;2023-02-07T18:39:24;0.30;1.00
435;DHT22;204;48.942;9.256;2023-02-07T18:41:50;0.20;1.00
435;DHT22;204;48.942;9.256;2023-02-07T18:44:15;0.10;1.00
435;DHT22;204;48.942;9.256;2023-02-07T18:46:41;0.10;1.00
435;DHT22;204;48.942;9.256;2023-02-07T18:49:06;0.10;1.00
435;DHT22;204;48.942;9.256;2023-02-07T18:51:32;0.00;1.00
435;DHT22;204;48.942;9.256;2023-02-07T18:53:58;0.00;1.00
435;DHT22;204;48.942;9.256;2023-02-07T18:56:24;-0.10;1.00
435;DHT22;204;48.942;9.256;2023-02-07T18:58:50;-0.10;1.00
435;DHT22;204;48.942;9.256;2023-02-07T19:01:24;-0.20;1.00
435;DHT22;204;48.942;9.256;2023-02-07T19:03:53;-0.30;1.00
435;DHT22;204;48.942;9.256;2023-02-07T19:06:24;-0.30;1.00
435;DHT22;204;48.942;9.256;2023-02-07T19:08:50;-0.30;1.00
435;DHT22;204;48.942;9.256;2023-02-07T19:11:16;-0.40;1.00
435;DHT22;204;48.942;9.256;2023-02-07T19:13:41;-0.40;1.00
435;DHT22;204;48.942;9.256;2023-02-07T19:16:11;-0.50;1.00
435;DHT22;204;48.942;9.256;2023-02-07T19:18:37;-0.50;1.00
435;DHT22;204;48.942;9.256;2023-02-07T19:21:08;-0.50;1.00
435;DHT22;204;48.942;9.256;2023-02-07T19:23:34;-0.60;1.00
435;DHT22;204;48.942;9.256;2023-02-07T19:26:00;-0.60;1.00
435;DHT22;204;48.942;9.256;2023-02-07T19:28:26;-0.60;1.00